Time;durP1;ratioP1;P1;durP2;ratioP2;P2;SDS_P1;SDS_P2;PMS_P1;PMS_P2;Temp;Humidity;BMP_temperature;BMP_pressure;BME280_temperature;BME280_humidity;BME280_pressure;Samples;Min_cycle;Max_cycle;Signal;HPM_P1;HPM_P2
2023/04/02 00:01:16;;;;;;;15.90;12.65;;;9.20;99.90;;;;;;5066800;28;20416;-70
2023/04/02 00:04:21;;;;;;;20.50;14.63;;;9.20;99.90;;;;;;5067317;28;20427;-69
2023/04/02 00:06:53;;;;;;;18.85;14.48;;;9.20;99.90;;;;;;5060914;28;20517;-69
2023/04/02 00:09:36;;;;;;;20.67;15.48;;;9.20;99.90;;;;;;5067914;28;20533;-71
2023/04/02 00:12:15;;;;;;;19.30;15.20;;;9.20;99.90;;;;;;5067856;28;20455;-71
2023/04/02 00:14:52;;;;;;;18.67;15.52;;;9.20;99.90;;;;;;5071735;28;20435;-70
2023/04/02 00:17:21;;;;;;;19.57;16.27;;;9.30;99.90;;;;;;5065343;28;20429;-69
2023/04/02 00:19:53;;;;;;;20.75;16.90;;;9.20;99.90;;;;;;5075139;28;20432;-70
2023/04/02 00:22:24;;;;;;;20.25;16.02;;;9.20;99.90;;;;;;5068066;28;20415;-69
2023/04/02 00:24:53;;;;;;;18.80;15.93;;;9.20;99.90;;;;;;5071874;28;20432;-70
2023/04/02 00:27:20;;;;;;;19.00;16.30;;;9.20;99.90;;;;;;5071960;28;20427;-69
2023/04/02 00:29:51;;;;;;;20.90;16.17;;;9.20;99.90;;;;;;5075514;28;20913;-69
2023/04/02 00:32:21;;;;;;;20.05;16.27;;;9.20;99.90;;;;;;5071142;28;20432;-69
2023/04/02 00:34:49;;;;;;;21.48;16.50;;;9.20;99.90;;;;;;5074372;28;20427;-70
2023/04/02 00:37:22;;;;;;;21.60;16.52;;;9.20;99.90;;;;;;5069830;28;20419;-70
2023/04/02 00:39:51;;;;;;;21.30;16.60;;;9.20;99.90;;;;;;5071588;28;20558;-70
2023/04/02 00:42:19;;;;;;;23.10;16.67;;;9.20;99.90;;;;;;5070551;28;21216;-70
2023/04/02 00:44:48;;;;;;;22.15;16.20;;;9.20;99.90;;;;;;5069443;28;20939;-70
2023/04/02 00:47:20;;;;;;;19.25;15.38;;;9.20;99.90;;;;;;5056833;28;20426;-70
2023/04/02 00:49:50;;;;;;;22.25;16.30;;;9.20;99.90;;;;;;5071134;28;20407;-70
2023/04/02 00:52:20;;;;;;;17.63;15.13;;;9.20;99.90;;;;;;5070684;28;20952;-70
2023/04/02 00:54:50;;;;;;;19.92;15.85;;;9.20;99.90;;;;;;5083061;28;20424;-70
2023/04/02 00:57:24;;;;;;;19.85;15.48;;;9.20;99.90;;;;;;5084466;28;20480;-69
2023/04/02 00:59:57;;;;;;;20.75;15.43;;;9.20;99.90;;;;;;5078736;28;20526;-70
2023/04/02 01:02:28;;;;;;;21.92;15.85;;;9.20;99.90;;;;;;5071013;28;20419;-71
2023/04/02 01:04:57;;;;;;;20.50;15.60;;;9.20;99.90;;;;;;5070919;28;20427;-71
2023/04/02 01:07:41;;;;;;;17.40;14.50;;;9.20;99.90;;;;;;5071455;28;20551;-71
2023/04/02 01:10:30;;;;;;;10.05;8.50;;;9.20;99.90;;;;;;5071466;28;20418;-71
2023/04/02 01:13:07;;;;;;;6.28;5.68;;;9.10;99.90;;;;;;5066408;28;20806;-72
2023/04/02 01:15:38;;;;;;;5.30;4.80;;;9.00;99.90;;;;;;5065524;28;20418;-69
2023/04/02 01:18:25;;;;;;;5.30;4.80;;;8.90;99.90;;;;;;5069468;28;20450;-70
2023/04/02 01:21:20;;;;;;;4.75;4.35;;;8.80;99.90;;;;;;5070395;28;20413;-71
2023/04/02 01:23:58;;;;;;;5.47;4.60;;;8.70;99.90;;;;;;5068351;28;20521;-70
2023/04/02 01:26:44;;;;;;;5.60;5.10;;;8.70;99.90;;;;;;5064211;28;20419;-72
2023/04/02 01:29:14;;;;;;;5.75;5.25;;;8.60;99.90;;;;;;5076582;28;20423;-70
2023/04/02 01:31:42;;;;;;;6.30;5.65;;;8.60;99.90;;;;;;5068845;28;20921;-71
2023/04/02 01:34:12;;;;;;;5.90;5.40;;;8.50;99.90;;;;;;5067895;28;20427;-70
2023/04/02 01:36:45;;;;;;;5.50;5.00;;;8.50;99.90;;;;;;5069328;28;20419;-71
2023/04/02 01:39:24;;;;;;;7.03;5.90;;;8.40;99.90;;;;;;5057454;28;20419;-71
2023/04/02 01:41:59;;;;;;;6.25;5.75;;;8.40;99.90;;;;;;5069749;28;20423;-71
2023/04/02 01:44:31;;;;;;;6.50;5.90;;;8.40;99.90;;;;;;5067801;28;20420;-71
2023/04/02 01:47:02;;;;;;;5.88;5.38;;;8.40;99.90;;;;;;5068954;28;20415;-71
2023/04/02 01:49:29;;;;;;;6.27;5.67;;;8.40;99.90;;;;;;5069829;28;20419;-70
2023/04/02 01:51:56;;;;;;;5.85;5.35;;;8.30;99.90;;;;;;5064501;28;20431;-72
2023/04/02 01:54:24;;;;;;;5.30;4.90;;;8.30;99.90;;;;;;5067998;28;20438;-71
2023/04/02 01:56:51;;;;;;;5.40;4.90;;;8.20;99.90;;;;;;5069679;28;20936;-70
2023/04/02 01:59:21;;;;;;;5.13;4.73;;;8.20;99.90;;;;;;5068234;28;20431;-69
2023/04/02 02:01:54;;;;;;;5.15;4.75;;;8.20;99.90;;;;;;5066784;28;20553;-70
2023/04/02 02:04:21;;;;;;;4.40;4.10;;;8.10;99.90;;;;;;5067920;28;20463;-71
2023/04/02 02:06:48;;;;;;;4.88;4.47;;;8.10;99.90;;;;;;5069314;28;20427;-71
2023/04/02 02:09:21;;;;;;;4.22;3.92;;;8.00;99.90;;;;;;5067941;28;20431;-72
2023/04/02 02:11:49;;;;;;;5.23;4.83;;;8.00;99.90;;;;;;5061743;28;20450;-70
2023/04/02 02:14:18;;;;;;;4.43;4.07;;;7.90;99.90;;;;;;5061376;28;20923;-71
2023/04/02 02:16:46;;;;;;;4.10;3.80;;;7.90;99.90;;;;;;5068318;28;20894;-70
2023/04/02 02:19:23;;;;;;;4.10;3.80;;;7.90;99.90;;;;;;5069026;28;20949;-70
2023/04/02 02:21:52;;;;;;;4.20;3.90;;;7.90;99.90;;;;;;5065640;28;20813;-70
2023/04/02 02:24:22;;;;;;;3.67;3.40;;;7.90;99.90;;;;;;5066515;28;20435;-70
2023/04/02 02:27:02;;;;;;;4.05;3.65;;;7.80;99.90;;;;;;5069661;28;20467;-70
2023/04/02 02:29:32;;;;;;;3.72;3.42;;;7.80;99.90;;;;;;5055903;28;20767;-71
2023/04/02 02:32:00;;;;;;;3.90;3.60;;;7.80;99.90;;;;;;5059189;28;20448;-69
2023/04/02 02:34:37;;;;;;;4.07;3.78;;;7.80;99.90;;;;;;5067909;28;20477;-70
2023/04/02 02:37:08;;;;;;;3.70;3.40;;;7.70;99.90;;;;;;5068624;28;20419;-70
2023/04/02 02:39:39;;;;;;;3.60;3.30;;;7.70;99.90;;;;;;5068727;28;20426;-70
2023/04/02 02:42:11;;;;;;;3.50;3.20;;;7.70;99.90;;;;;;5067397;28;20438;-70
2023/04/02 02:44:42;;;;;;;3.67;3.38;;;7.70;99.90;;;;;;5066908;28;20507;-70
2023/04/02 02:47:13;;;;;;;3.80;3.50;;;7.70;99.90;;;;;;5067783;28;20411;-71
2023/04/02 02:49:44;;;;;;;3.80;3.50;;;7.70;99.90;;;;;;5068633;28;20458;-70
2023/04/02 02:52:16;;;;;;;3.40;3.20;;;7.70;99.90;;;;;;5070994;28;20446;-70
2023/04/02 02:54:47;;;;;;;3.50;3.30;;;7.70;99.90;;;;;;5068377;28;20456;-70
2023/04/02 02:57:18;;;;;;;3.90;3.60;;;7.60;99.90;;;;;;5068535;28;20460;-70
2023/04/02 02:59:46;;;;;;;3.80;3.50;;;7.60;99.90;;;;;;5067370;28;20463;-70
2023/04/02 03:02:14;;;;;;;3.80;3.50;;;7.60;99.90;;;;;;5064136;28;20489;-69
2023/04/02 03:04:47;;;;;;;3.95;3.65;;;7.60;99.90;;;;;;5087640;28;20509;-70
2023/04/02 03:07:15;;;;;;;3.78;3.47;;;7.60;99.90;;;;;;5072443;28;20864;-70
2023/04/02 03:09:49;;;;;;;3.90;3.60;;;7.60;99.90;;;;;;5067302;28;20438;-72
2023/04/02 03:12:38;;;;;;;3.50;3.20;;;7.60;99.90;;;;;;5061345;28;20473;-70
2023/04/02 03:15:13;;;;;;;4.10;3.80;;;7.50;99.90;;;;;;5055972;28;20449;-69
2023/04/02 03:17:45;;;;;;;3.70;3.40;;;7.50;99.90;;;;;;5065601;28;20431;-70
2023/04/02 03:20:17;;;;;;;3.90;3.60;;;7.50;99.90;;;;;;5067257;28;20442;-70
2023/04/02 03:22:50;;;;;;;3.70;3.40;;;7.40;99.90;;;;;;5065741;28;20491;-71
2023/04/02 03:25:26;;;;;;;4.00;3.70;;;7.40;99.90;;;;;;5066291;28;20439;-70
2023/04/02 03:27:58;;;;;;;4.10;3.80;;;7.40;99.90;;;;;;5059130;28;20455;-71
2023/04/02 03:30:34;;;;;;;4.30;4.00;;;7.40;99.90;;;;;;5068727;28;20479;-69
2023/04/02 03:33:06;;;;;;;4.68;4.28;;;7.40;99.90;;;;;;5067650;28;20914;-70
2023/04/02 03:35:40;;;;;;;4.78;4.38;;;7.40;99.90;;;;;;5067272;28;20449;-72
2023/04/02 03:38:13;;;;;;;5.20;4.80;;;7.40;99.90;;;;;;5068240;28;20509;-69
2023/04/02 03:40:44;;;;;;;4.88;4.47;;;7.40;99.90;;;;;;5067273;28;20477;-70
2023/04/02 03:43:16;;;;;;;5.00;4.60;;;7.40;99.90;;;;;;5067640;28;20419;-70
2023/04/02 03:45:49;;;;;;;4.70;4.40;;;7.30;99.90;;;;;;5079083;28;20948;-70
2023/04/02 03:48:21;;;;;;;5.10;4.70;;;7.30;99.90;;;;;;5067680;28;20419;-69
2023/04/02 03:50:56;;;;;;;5.22;4.82;;;7.30;99.90;;;;;;5066986;28;20453;-70
2023/04/02 03:53:24;;;;;;;6.15;5.65;;;7.30;99.90;;;;;;5071092;28;20430;-70
2023/04/02 03:55:51;;;;;;;5.70;5.30;;;7.30;99.90;;;;;;5070063;28;20481;-70
2023/04/02 03:58:23;;;;;;;5.60;5.20;;;7.30;99.90;;;;;;5067555;28;20421;-70
2023/04/02 04:00:55;;;;;;;7.05;6.55;;;7.30;99.90;;;;;;5065160;28;20721;-70
2023/04/02 04:03:28;;;;;;;6.30;5.80;;;7.30;99.90;;;;;;5066094;28;20423;-70
2023/04/02 04:05:59;;;;;;;7.03;6.53;;;7.20;99.90;;;;;;5067331;28;20547;-70
2023/04/02 04:08:32;;;;;;;7.32;6.72;;;7.20;99.90;;;;;;5066771;28;20456;-70
2023/04/02 04:11:03;;;;;;;7.68;7.07;;;7.20;99.90;;;;;;5065956;28;20504;-70
2023/04/02 04:13:38;;;;;;;7.78;7.18;;;7.10;99.90;;;;;;5069331;28;20415;-70
2023/04/02 04:16:08;;;;;;;7.40;6.80;;;7.10;99.90;;;;;;5065365;28;20696;-73
2023/04/02 04:18:43;;;;;;;7.50;6.90;;;7.10;99.90;;;;;;5068131;28;20754;-71
2023/04/02 04:21:28;;;;;;;8.25;7.55;;;7.10;99.90;;;;;;5067043;28;20438;-71
2023/04/02 04:23:57;;;;;;;8.00;7.32;;;7.10;99.90;;;;;;5065804;28;20428;-69
2023/04/02 04:26:29;;;;;;;8.15;7.55;;;7.10;99.90;;;;;;5066801;28;20518;-69
2023/04/02 04:29:04;;;;;;;8.40;7.70;;;7.00;99.90;;;;;;5067431;28;20884;-70
2023/04/02 04:31:38;;;;;;;7.90;7.20;;;7.00;99.90;;;;;;5065051;28;20450;-70
2023/04/02 04:34:11;;;;;;;7.60;7.00;;;7.00;99.90;;;;;;5060918;28;20427;-70
2023/04/02 04:36:46;;;;;;;7.27;6.70;;;7.00;99.90;;;;;;5066464;28;20952;-70
2023/04/02 04:39:17;;;;;;;7.68;7.07;;;7.00;99.90;;;;;;5066173;28;20498;-72
2023/04/02 04:41:46;;;;;;;7.40;6.80;;;7.00;99.90;;;;;;5066318;28;20557;-71
2023/04/02 04:44:18;;;;;;;6.90;6.40;;;7.00;99.90;;;;;;5058247;28;20423;-71
2023/04/02 04:46:51;;;;;;;7.30;6.70;;;6.90;99.90;;;;;;5065024;28;20446;-70
2023/04/02 04:49:22;;;;;;;6.50;6.00;;;6.90;99.90;;;;;;5066140;28;20438;-70
2023/04/02 04:51:54;;;;;;;6.40;5.90;;;6.90;99.90;;;;;;5065835;28;20479;-72
2023/04/02 04:54:26;;;;;;;6.90;6.30;;;6.90;99.90;;;;;;5065809;28;20958;-71
2023/04/02 04:56:57;;;;;;;6.95;6.45;;;6.80;99.90;;;;;;5066400;28;20861;-70
2023/04/02 04:59:28;;;;;;;7.18;6.68;;;6.80;99.90;;;;;;5066315;28;20415;-70
2023/04/02 05:02:00;;;;;;;7.05;6.45;;;6.80;99.90;;;;;;5065310;28;20436;-72
2023/04/02 05:04:34;;;;;;;6.80;6.30;;;6.80;99.90;;;;;;5067398;28;20453;-70
2023/04/02 05:07:08;;;;;;;7.00;6.50;;;6.70;99.90;;;;;;5066456;28;20427;-71
2023/04/02 05:09:38;;;;;;;6.88;6.38;;;6.70;99.90;;;;;;5066653;28;20474;-70
2023/04/02 05:12:16;;;;;;;7.00;6.50;;;6.70;99.90;;;;;;5065181;28;20446;-71
2023/04/02 05:14:49;;;;;;;6.80;6.30;;;6.70;99.90;;;;;;5064552;28;20747;-72
2023/04/02 05:17:22;;;;;;;7.30;6.70;;;6.70;99.90;;;;;;5068422;28;20502;-71
2023/04/02 05:19:55;;;;;;;6.50;6.00;;;6.70;99.90;;;;;;5070524;28;20419;-70
2023/04/02 05:22:29;;;;;;;7.13;6.63;;;6.60;99.90;;;;;;5068222;28;20832;-70
2023/04/02 05:25:03;;;;;;;7.15;6.65;;;6.60;99.90;;;;;;5062483;28;20965;-70
2023/04/02 05:27:38;;;;;;;7.10;6.50;;;6.60;99.90;;;;;;5070301;28;20423;-70
2023/04/02 05:30:14;;;;;;;6.90;6.40;;;6.60;99.90;;;;;;5069725;28;20420;-68
2023/04/02 05:32:45;;;;;;;7.30;6.80;;;6.60;99.90;;;;;;5064042;28;20442;-71
2023/04/02 05:35:17;;;;;;;7.10;6.60;;;6.60;99.90;;;;;;5064605;28;20419;-71
2023/04/02 05:37:46;;;;;;;6.70;6.20;;;6.60;99.90;;;;;;5072462;28;20431;-71
2023/04/02 05:40:19;;;;;;;6.47;5.97;;;6.60;99.90;;;;;;5068667;28;20469;-72
2023/04/02 05:42:51;;;;;;;7.28;6.78;;;6.60;99.90;;;;;;5068692;28;20451;-70
2023/04/02 05:45:25;;;;;;;7.05;6.55;;;6.50;99.90;;;;;;5068801;28;20474;-70
2023/04/02 05:48:00;;;;;;;7.00;6.50;;;6.50;99.90;;;;;;5062958;28;20593;-70
2023/04/02 05:50:30;;;;;;;7.20;6.70;;;6.50;99.90;;;;;;5085718;22;20444;-72
2023/04/02 05:53:06;;;;;;;7.00;6.50;;;6.50;99.90;;;;;;5074879;22;20455;-73
2023/04/02 05:55:39;;;;;;;8.50;7.80;;;6.50;99.90;;;;;;5083620;28;20412;-74
2023/04/02 05:58:12;;;;;;;8.33;7.73;;;6.60;99.90;;;;;;5094596;28;20471;-70
2023/04/02 06:00:56;;;;;;;7.78;7.22;;;6.60;99.90;;;;;;5070346;28;20437;-71
2023/04/02 06:03:29;;;;;;;7.80;7.20;;;6.60;99.90;;;;;;5054047;28;20435;-72
2023/04/02 06:06:01;;;;;;;8.10;7.50;;;6.60;99.90;;;;;;5070939;28;20910;-73
2023/04/02 06:08:35;;;;;;;8.20;7.60;;;6.50;99.90;;;;;;5063484;28;20421;-69
2023/04/02 06:11:07;;;;;;;8.30;7.60;;;6.50;99.90;;;;;;5049874;28;20469;-71
2023/04/02 06:13:34;;;;;;;7.70;7.10;;;6.50;99.90;;;;;;5058408;28;20440;-71
2023/04/02 06:16:01;;;;;;;8.45;7.75;;;6.50;99.90;;;;;;5054861;28;20450;-71
2023/04/02 06:18:31;;;;;;;7.75;7.25;;;6.50;99.90;;;;;;5085542;28;20410;-72
2023/04/02 06:20:58;;;;;;;7.90;7.30;;;6.50;99.90;;;;;;5064585;28;20443;-69
2023/04/02 06:23:32;;;;;;;7.97;7.37;;;6.60;99.90;;;;;;5081196;28;20523;-70
2023/04/02 06:26:03;;;;;;;7.95;7.35;;;6.60;99.90;;;;;;5054014;28;20443;-70
2023/04/02 06:28:37;;;;;;;7.57;6.97;;;6.60;99.90;;;;;;5051160;28;20896;-69
2023/04/02 06:31:10;;;;;;;7.30;6.80;;;6.50;99.90;;;;;;5052390;28;20795;-70
2023/04/02 06:33:37;;;;;;;7.25;6.68;;;6.50;99.90;;;;;;5069698;28;20482;-71
2023/04/02 06:36:06;;;;;;;8.00;7.40;;;6.50;99.90;;;;;;5045865;28;20413;-71
2023/04/02 06:38:35;;;;;;;7.13;6.63;;;6.50;99.90;;;;;;5046228;28;20448;-72
2023/04/02 06:41:07;;;;;;;7.28;6.78;;;6.50;99.90;;;;;;5068159;28;20453;-72
2023/04/02 06:43:37;;;;;;;7.85;7.20;;;6.50;99.90;;;;;;5061299;28;20417;-71
2023/04/02 06:46:09;;;;;;;7.68;7.00;;;6.50;99.90;;;;;;5048921;28;20462;-71
2023/04/02 06:48:37;;;;;;;8.52;7.93;;;6.50;99.90;;;;;;5072751;28;20539;-71
2023/04/02 06:51:09;;;;;;;8.35;7.65;;;6.50;99.90;;;;;;5052481;28;20414;-71
2023/04/02 06:53:40;;;;;;;7.95;7.35;;;6.50;99.90;;;;;;5046358;28;20429;-70
2023/04/02 06:56:17;;;;;;;8.73;8.02;;;6.50;99.90;;;;;;5062481;28;20508;-70
2023/04/02 06:58:43;;;;;;;9.25;8.55;;;6.60;99.90;;;;;;5066945;28;20429;-71
2023/04/02 07:01:17;;;;;;;9.65;8.95;;;6.60;99.90;;;;;;5073330;28;20434;-71
2023/04/02 07:03:45;;;;;;;10.00;9.20;;;6.60;99.90;;;;;;5066717;28;20429;-72
2023/04/02 07:06:16;;;;;;;9.70;8.93;;;6.60;99.90;;;;;;5090590;28;20445;-71
2023/04/02 07:08:44;;;;;;;9.93;9.23;;;6.70;99.90;;;;;;5069323;28;20429;-71
2023/04/02 07:11:15;;;;;;;9.00;8.30;;;6.60;99.90;;;;;;5067647;28;20508;-74
2023/04/02 07:13:43;;;;;;;9.57;8.77;;;6.70;99.90;;;;;;5047067;28;20421;-71
2023/04/02 07:16:14;;;;;;;9.20;8.40;;;6.60;99.90;;;;;;5054200;28;20429;-71
2023/04/02 07:18:42;;;;;;;8.10;7.50;;;6.60;99.90;;;;;;5062917;28;20530;-71
2023/04/02 07:21:08;;;;;;;8.38;7.68;;;6.50;99.90;;;;;;5084177;28;20409;-71
2023/04/02 07:23:35;;;;;;;8.90;8.10;;;6.50;99.90;;;;;;5047210;28;20504;-72
2023/04/02 07:26:04;;;;;;;10.07;9.18;;;6.50;99.90;;;;;;5045709;28;20459;-69
2023/04/02 07:28:31;;;;;;;9.10;8.20;;;6.40;99.90;;;;;;5059820;28;20433;-72
2023/04/02 07:30:58;;;;;;;9.40;8.60;;;6.40;99.90;;;;;;5048174;28;20483;-72
2023/04/02 07:33:27;;;;;;;8.55;7.75;;;6.40;99.90;;;;;;5054936;28;20424;-71
2023/04/02 07:35:56;;;;;;;8.40;7.70;;;6.50;99.90;;;;;;5056435;28;20512;-71
2023/04/02 07:38:22;;;;;;;8.50;7.80;;;6.50;99.90;;;;;;5062265;28;20440;-71
2023/04/02 07:40:49;;;;;;;9.05;8.15;;;6.50;99.90;;;;;;5061810;28;20419;-71
2023/04/02 07:43:17;;;;;;;9.63;8.73;;;6.50;99.90;;;;;;5070797;28;20437;-71
2023/04/02 07:45:44;;;;;;;9.20;8.40;;;6.60;99.90;;;;;;5072961;28;20425;-71
2023/04/02 07:48:13;;;;;;;9.30;8.50;;;6.50;99.90;;;;;;5082091;28;20406;-71
2023/04/02 07:50:40;;;;;;;9.32;8.52;;;6.50;99.90;;;;;;5057677;28;20452;-72
2023/04/02 07:53:07;;;;;;;9.20;8.40;;;6.50;99.90;;;;;;5054623;28;20869;-71
2023/04/02 07:55:34;;;;;;;9.43;8.63;;;6.50;99.90;;;;;;5055388;28;20871;-71
2023/04/02 07:58:01;;;;;;;9.20;8.40;;;6.50;99.90;;;;;;5047500;28;20418;-71
2023/04/02 08:00:30;;;;;;;8.80;8.10;;;6.50;99.90;;;;;;5063065;28;20652;-71
2023/04/02 08:02:56;;;;;;;9.93;9.10;;;6.50;99.90;;;;;;5074379;28;20429;-71
2023/04/02 08:05:23;;;;;;;9.52;8.73;;;6.50;99.90;;;;;;5086145;28;20417;-72
2023/04/02 08:07:54;;;;;;;9.20;8.40;;;6.50;99.90;;;;;;5084218;28;20645;-71
2023/04/02 08:10:21;;;;;;;9.48;8.57;;;6.50;99.90;;;;;;5063308;28;20569;-71
2023/04/02 08:12:48;;;;;;;9.20;8.40;;;6.50;99.90;;;;;;5064095;28;20433;-71
2023/04/02 08:15:15;;;;;;;9.25;8.35;;;6.60;99.90;;;;;;5069796;28;20507;-73
2023/04/02 08:17:44;;;;;;;9.32;8.52;;;6.60;99.90;;;;;;5045398;28;20433;-71
2023/04/02 08:20:16;;;;;;;9.80;9.00;;;6.60;99.90;;;;;;5066184;28;20515;-71
2023/04/02 08:22:43;;;;;;;9.20;8.40;;;6.60;99.90;;;;;;5045233;28;20891;-71
2023/04/02 08:25:11;;;;;;;8.65;7.85;;;6.70;99.90;;;;;;5049084;28;20429;-71
2023/04/02 08:27:38;;;;;;;8.73;8.00;;;6.70;99.90;;;;;;5052317;28;20493;-71
2023/04/02 08:30:06;;;;;;;8.85;8.15;;;6.70;99.90;;;;;;5072626;28;20811;-71
2023/04/02 08:32:33;;;;;;;8.93;8.20;;;6.70;99.90;;;;;;5087076;28;20555;-72
2023/04/02 08:35:01;;;;;;;8.90;8.10;;;6.70;99.90;;;;;;5093240;28;20745;-73
2023/04/02 08:37:28;;;;;;;8.90;8.10;;;6.70;99.90;;;;;;5065851;28;20511;-71
2023/04/02 08:39:55;;;;;;;9.10;8.30;;;6.80;99.90;;;;;;5069364;28;20429;-72
2023/04/02 08:42:29;;;;;;;8.90;8.20;;;6.80;99.90;;;;;;5070282;28;20427;-71
2023/04/02 08:45:08;;;;;;;9.70;8.90;;;6.80;99.90;;;;;;5044791;28;20448;-73
2023/04/02 08:47:39;;;;;;;9.80;8.90;;;6.80;99.90;;;;;;5059480;28;20770;-71
2023/04/02 08:50:15;;;;;;;9.33;8.53;;;6.80;99.90;;;;;;5070742;28;20464;-71
2023/04/02 08:52:42;;;;;;;9.75;8.85;;;6.80;99.90;;;;;;5061563;28;20487;-71
2023/04/02 08:55:22;;;;;;;9.43;8.63;;;6.90;99.90;;;;;;5085840;28;20416;-72
2023/04/02 08:57:57;;;;;;;9.73;8.82;;;6.80;99.90;;;;;;5057223;28;20456;-71
2023/04/02 09:00:29;;;;;;;10.13;9.23;;;6.90;99.90;;;;;;5056790;28;20482;-71
2023/04/02 09:02:59;;;;;;;9.48;8.65;;;6.90;99.90;;;;;;5057411;28;20488;-71
2023/04/02 09:05:31;;;;;;;9.43;8.63;;;6.90;99.90;;;;;;5078500;28;20425;-71
2023/04/02 09:08:01;;;;;;;10.90;9.80;;;6.90;99.90;;;;;;5080909;28;21015;-70
2023/04/02 09:10:37;;;;;;;9.40;8.60;;;6.90;99.90;;;;;;5079612;28;20442;-70
2023/04/02 09:13:09;;;;;;;9.32;8.52;;;7.00;99.90;;;;;;5063788;28;20537;-72
2023/04/02 09:15:36;;;;;;;9.25;8.45;;;7.00;99.90;;;;;;5071939;28;20517;-72
2023/04/02 09:18:12;;;;;;;9.25;8.30;;;7.00;99.90;;;;;;5060614;28;20448;-71
2023/04/02 09:20:40;;;;;;;9.38;8.50;;;7.10;99.90;;;;;;5075412;28;20912;-71
2023/04/02 09:23:11;;;;;;;8.50;7.70;;;7.10;99.90;;;;;;5058497;28;20421;-71
2023/04/02 09:25:45;;;;;;;8.80;8.10;;;7.10;99.90;;;;;;5064297;28;20463;-71
2023/04/02 09:28:12;;;;;;;8.55;7.75;;;7.10;99.90;;;;;;5055107;28;20425;-71
2023/04/02 09:30:53;;;;;;;8.35;7.60;;;7.10;99.90;;;;;;5047137;28;20421;-71
2023/04/02 09:33:20;;;;;;;8.13;7.33;;;7.20;99.90;;;;;;5068538;28;20524;-71
2023/04/02 09:35:57;;;;;;;8.13;7.43;;;7.30;99.90;;;;;;5072158;28;20426;-70
2023/04/02 09:38:27;;;;;;;8.60;7.80;;;7.40;99.90;;;;;;5050497;28;20416;-71
2023/04/02 09:41:00;;;;;;;8.23;7.50;;;7.40;99.90;;;;;;5048288;28;20432;-70
2023/04/02 09:43:29;;;;;;;6.82;6.20;;;7.50;99.90;;;;;;5058321;28;20460;-71
2023/04/02 09:45:59;;;;;;;6.93;6.32;;;7.50;99.90;;;;;;5069716;28;20463;-71
2023/04/02 09:48:30;;;;;;;7.40;6.70;;;7.60;99.90;;;;;;5053182;28;20802;-71
2023/04/02 09:51:16;;;;;;;6.45;5.95;;;7.70;99.90;;;;;;5064955;28;20911;-73
2023/04/02 09:53:44;;;;;;;7.90;7.20;;;7.70;99.90;;;;;;5064825;28;20493;-72
2023/04/02 09:56:15;;;;;;;7.25;6.65;;;7.70;99.90;;;;;;5055707;28;20847;-71
2023/04/02 09:58:43;;;;;;;6.80;6.25;;;7.70;99.90;;;;;;5052114;28;20429;-73
2023/04/02 10:01:28;;;;;;;7.13;6.53;;;7.70;99.90;;;;;;5047243;28;20445;-72
2023/04/02 10:03:55;;;;;;;7.60;7.00;;;7.80;99.90;;;;;;5054337;28;20433;-71
2023/04/02 10:06:23;;;;;;;7.80;7.10;;;7.80;99.90;;;;;;5059227;28;20941;-71
2023/04/02 10:08:50;;;;;;;7.40;6.75;;;7.80;99.90;;;;;;5062774;28;20430;-71
2023/04/02 10:11:21;;;;;;;7.60;7.00;;;7.80;99.90;;;;;;5066706;28;20417;-71
2023/04/02 10:13:53;;;;;;;8.30;7.50;;;7.80;99.90;;;;;;5070382;28;20421;-71
2023/04/02 10:16:23;;;;;;;8.30;7.60;;;7.80;99.90;;;;;;5061020;28;20900;-71
2023/04/02 10:18:54;;;;;;;8.50;7.80;;;7.90;99.90;;;;;;5053372;28;20423;-71
2023/04/02 10:21:26;;;;;;;8.50;7.80;;;7.90;99.90;;;;;;5082610;28;20450;-72
2023/04/02 10:23:53;;;;;;;9.00;8.20;;;8.00;99.90;;;;;;5065207;28;20569;-71
2023/04/02 10:26:35;;;;;;;9.07;8.38;;;8.00;99.90;;;;;;5048127;28;20421;-71
2023/04/02 10:29:26;;;;;;;9.93;9.13;;;8.00;99.90;;;;;;5056571;28;20547;-73
2023/04/02 10:32:01;;;;;;;8.98;8.18;;;8.10;99.90;;;;;;5076141;28;20431;-71
2023/04/02 10:34:39;;;;;;;8.82;8.13;;;8.20;99.10;;;;;;5070893;28;20434;-71
2023/04/02 10:37:29;;;;;;;8.20;7.50;;;8.20;98.80;;;;;;5058534;28;20665;-68
2023/04/02 10:40:00;;;;;;;8.75;8.05;;;8.40;98.90;;;;;;5055257;28;20417;-72
2023/04/02 10:42:35;;;;;;;8.45;7.70;;;8.60;98.10;;;;;;5050793;28;20452;-70
2023/04/02 10:45:13;;;;;;;8.60;7.90;;;8.70;97.40;;;;;;5055238;28;20464;-72
2023/04/02 10:47:47;;;;;;;8.10;7.40;;;8.80;97.10;;;;;;5056909;28;20425;-71
2023/04/02 10:50:31;;;;;;;7.63;7.03;;;8.90;96.60;;;;;;5069183;28;20896;-72
2023/04/02 10:53:08;;;;;;;7.90;7.30;;;9.00;96.40;;;;;;5062499;28;20451;-71
2023/04/02 10:55:42;;;;;;;7.93;7.32;;;9.20;96.00;;;;;;5068211;28;20540;-71
2023/04/02 10:58:18;;;;;;;7.40;6.80;;;9.40;96.30;;;;;;5052549;28;20421;-70
2023/04/02 11:00:47;;;;;;;7.50;6.90;;;9.60;95.10;;;;;;5042901;28;20535;-72
2023/04/02 11:03:18;;;;;;;7.20;6.60;;;9.70;93.90;;;;;;5053338;28;20442;-72
2023/04/02 11:05:47;;;;;;;6.57;6.07;;;9.80;94.30;;;;;;5047589;28;20532;-70
2023/04/02 11:08:19;;;;;;;7.03;6.43;;;10.00;93.50;;;;;;5067020;28;20675;-70
2023/04/02 11:10:50;;;;;;;7.10;6.50;;;10.00;92.70;;;;;;5043148;28;20424;-72
2023/04/02 11:13:22;;;;;;;7.20;6.60;;;10.00;92.80;;;;;;5044273;28;20440;-70
2023/04/02 11:15:50;;;;;;;6.85;6.35;;;10.10;92.50;;;;;;5078716;28;20612;-69
2023/04/02 11:18:23;;;;;;;6.80;6.25;;;10.10;91.80;;;;;;5050508;28;20425;-71
2023/04/02 11:21:01;;;;;;;6.70;6.10;;;10.20;92.00;;;;;;5066253;28;20430;-72
2023/04/02 11:23:32;;;;;;;7.43;6.82;;;10.20;91.60;;;;;;5063125;28;20509;-71
2023/04/02 11:26:32;;;;;;;6.57;6.07;;;10.20;91.50;;;;;;5069078;28;20447;-69
2023/04/02 11:29:06;;;;;;;6.50;6.00;;;10.10;91.00;;;;;;5003055;28;20881;-70
2023/04/02 11:31:33;;;;;;;6.25;5.75;;;10.00;91.60;;;;;;5047153;28;20437;-70
2023/04/02 11:34:00;;;;;;;6.80;6.30;;;10.00;91.90;;;;;;5080942;28;20512;-72
2023/04/02 11:36:59;;;;;;;7.00;6.30;;;10.00;92.20;;;;;;5066265;28;20421;-70
2023/04/02 11:39:52;;;;;;;7.00;6.40;;;10.00;92.00;;;;;;5044982;28;20424;-70
2023/04/02 11:42:24;;;;;;;7.03;6.32;;;10.10;91.60;;;;;;5055530;28;20433;-71
2023/04/02 11:44:51;;;;;;;7.13;6.53;;;10.10;90.80;;;;;;5065395;28;20456;-70
2023/04/02 11:47:20;;;;;;;7.03;6.43;;;10.10;90.60;;;;;;5045626;28;20448;-71
2023/04/02 11:50:01;;;;;;;6.03;5.53;;;10.00;91.00;;;;;;5073731;22;20502;-70
2023/04/02 11:52:45;;;;;;;7.07;6.47;;;10.00;91.20;;;;;;5060276;28;20419;-70
2023/04/02 11:55:25;;;;;;;7.00;6.50;;;10.00;90.90;;;;;;5069235;28;20434;-70
2023/04/02 11:58:32;;;;;;;6.20;5.70;;;10.00;90.80;;;;;;5063781;28;20660;-70
2023/04/02 12:01:38;;;;;;;6.60;6.10;;;9.90;90.30;;;;;;5060461;28;20417;-70
2023/04/02 12:04:23;;;;;;;7.20;6.63;;;9.80;91.20;;;;;;5048903;28;20417;-70
2023/04/02 12:07:11;;;;;;;7.60;6.90;;;9.90;91.30;;;;;;5055299;28;20802;-69
2023/04/02 12:09:45;;;;;;;7.30;6.60;;;9.90;91.10;;;;;;5057576;28;20563;-69
2023/04/02 12:12:26;;;;;;;7.20;6.60;;;10.00;89.90;;;;;;5049368;28;20417;-68
2023/04/02 12:14:54;;;;;;;7.00;6.40;;;10.00;90.30;;;;;;5046922;28;20938;-69
2023/04/02 12:17:33;;;;;;;6.43;5.83;;;10.10;90.10;;;;;;5059549;28;20422;-72
2023/04/02 12:20:07;;;;;;;7.22;6.63;;;10.20;88.80;;;;;;5051514;28;20911;-70
2023/04/02 12:22:36;;;;;;;6.50;5.90;;;10.30;89.70;;;;;;5058552;28;20419;-70
2023/04/02 12:25:07;;;;;;;6.50;6.00;;;10.40;89.10;;;;;;5054265;28;20425;-70
2023/04/02 12:27:36;;;;;;;5.97;5.47;;;10.50;87.20;;;;;;5065687;28;20436;-70
2023/04/02 12:30:17;;;;;;;6.28;5.88;;;10.60;86.90;;;;;;5059316;28;20428;-71
2023/04/02 12:32:43;;;;;;;5.53;5.13;;;10.50;86.40;;;;;;5061743;28;20432;-68
2023/04/02 12:35:27;;;;;;;6.30;5.80;;;10.50;85.80;;;;;;5055535;28;20436;-69
2023/04/02 12:37:55;;;;;;;5.82;5.43;;;10.50;84.80;;;;;;5067122;28;20409;-69
2023/04/02 12:40:24;;;;;;;6.38;5.88;;;10.40;85.20;;;;;;5058602;28;21041;-71
2023/04/02 12:42:52;;;;;;;6.80;6.30;;;10.30;87.30;;;;;;5055553;28;20436;-68
2023/04/02 12:45:24;;;;;;;7.28;6.60;;;10.20;86.00;;;;;;5053167;28;20923;-68
2023/04/02 12:47:52;;;;;;;7.10;6.50;;;10.10;87.50;;;;;;5062309;28;20465;-71
2023/04/02 12:50:21;;;;;;;7.55;6.85;;;10.10;86.90;;;;;;5054620;28;20491;-71
2023/04/02 12:52:50;;;;;;;7.30;6.70;;;10.00;87.10;;;;;;5050480;28;20417;-71
2023/04/02 12:55:19;;;;;;;6.85;6.25;;;10.00;87.30;;;;;;5053428;28;20436;-69
2023/04/02 12:57:48;;;;;;;6.80;6.30;;;10.00;87.90;;;;;;5056353;28;20421;-70
2023/04/02 13:00:34;;;;;;;6.97;6.38;;;9.90;87.60;;;;;;5052829;28;20533;-70
2023/04/02 13:03:17;;;;;;;7.57;6.97;;;9.90;88.40;;;;;;5058838;28;20787;-69
2023/04/02 13:05:47;;;;;;;7.00;6.40;;;9.90;87.50;;;;;;5051916;28;20931;-72
2023/04/02 13:08:18;;;;;;;6.82;6.30;;;9.90;87.80;;;;;;5043873;28;21015;-69
2023/04/02 13:10:46;;;;;;;6.45;5.95;;;9.90;86.90;;;;;;5038461;28;20424;-70
2023/04/02 13:13:16;;;;;;;7.33;6.30;;;10.00;87.90;;;;;;5051303;28;20464;-70
2023/04/02 13:15:45;;;;;;;7.13;5.97;;;10.00;87.20;;;;;;5049082;28;20436;-68
2023/04/02 13:18:19;;;;;;;6.10;5.60;;;10.10;87.50;;;;;;5057811;28;20452;-70
2023/04/02 13:20:56;;;;;;;6.22;5.63;;;10.20;86.00;;;;;;5058014;28;20433;-71